Time;durP1;ratioP1;P1;durP2;ratioP2;P2;SDS_P1;SDS_P2;PMS_P1;PMS_P2;Temp;Humidity;BMP_temperature;BMP_pressure;BME280_temperature;BME280_humidity;BME280_pressure;Samples;Min_cycle;Max_cycle;Signal;HPM_P1;HPM_P2
2021/05/18 00:00:49;;;;;;;;;4.00;3.00;;;;;;;;3534512;39;113159;-70
2021/05/18 00:03:17;;;;;;;;;5.00;2.00;;;;;;;;3534063;39;113789;-69
2021/05/18 00:05:44;;;;;;;;;4.00;3.00;;;;;;;;3533189;39;112124;-70
2021/05/18 00:08:12;;;;;;;;;2.50;2.00;;;;;;;;3533839;39;114906;-70
2021/05/18 00:13:24;;;;;;;;;5.00;2.00;;;;;;;;3531640;39;111760;-69
2021/05/18 00:15:52;;;;;;;;;3.50;3.00;;;;;;;;3533963;39;114013;-70
2021/05/18 00:18:19;;;;;;;;;4.50;2.00;;;;;;;;3534556;39;111788;-69
2021/05/18 00:20:45;;;;;;;;;4.25;3.25;;;;;;;;3534502;39;113338;-70
2021/05/18 00:23:12;;;;;;;;;7.00;3.00;;;;;;;;3534032;39;113805;-70
2021/05/18 00:25:38;;;;;;;;;2.00;2.00;;;;;;;;3534111;39;112433;-68
2021/05/18 00:28:04;;;;;;;;;3.75;2.50;;;;;;;;3536634;39;113434;-69
2021/05/18 00:30:30;;;;;;;;;5.50;3.25;;;;;;;;3534050;39;111932;-70
2021/05/18 00:32:56;;;;;;;;;3.75;3.00;;;;;;;;3534317;39;113357;-69
2021/05/18 00:35:23;;;;;;;;;4.75;3.00;;;;;;;;3533560;39;114439;-70
2021/05/18 00:37:49;;;;;;;;;7.75;2.00;;;;;;;;3534173;39;111795;-69
2021/05/18 00:40:16;;;;;;;;;4.00;3.00;;;;;;;;3534287;39;113735;-69
2021/05/18 00:42:46;;;;;;;;;5.00;4.00;;;;;;;;3529650;39;112860;-70
2021/05/18 00:45:13;;;;;;;;;5.00;3.00;;;;;;;;3529872;39;112094;-69
2021/05/18 00:47:39;;;;;;;;;8.50;3.00;;;;;;;;3533905;39;112455;-69
2021/05/18 00:50:06;;;;;;;;;8.00;3.50;;;;;;;;3536313;39;114004;-71
2021/05/18 00:52:33;;;;;;;;;5.50;4.00;;;;;;;;3533940;39;112630;-69
2021/05/18 00:55:04;;;;;;;;;7.00;3.75;;;;;;;;3533578;39;113844;-70
2021/05/18 01:00:15;;;;;;;;;4.75;3.25;;;;;;;;3530661;39;112336;-70
2021/05/18 01:02:41;;;;;;;;;2.25;1.00;;;;;;;;3533872;39;113782;-69
2021/05/18 01:05:15;;;;;;;;;4.50;3.00;;;;;;;;3534078;39;112084;-69
2021/05/18 01:07:41;;;;;;;;;2.25;2.25;;;;;;;;3532179;39;113367;-69
2021/05/18 01:10:08;;;;;;;;;5.00;3.00;;;;;;;;3536318;39;113894;-70
2021/05/18 01:12:34;;;;;;;;;7.75;3.75;;;;;;;;3533996;39;113229;-70
2021/05/18 01:15:00;;;;;;;;;3.50;2.50;;;;;;;;3533721;39;114010;-70
2021/05/18 01:17:27;;;;;;;;;8.50;5.25;;;;;;;;3534017;39;111854;-69
2021/05/18 01:19:53;;;;;;;;;4.50;3.25;;;;;;;;3534101;39;113411;-70
2021/05/18 01:22:20;;;;;;;;;3.00;3.00;;;;;;;;3527622;39;113259;-69
2021/05/18 01:24:46;;;;;;;;;4.00;4.00;;;;;;;;3534181;39;111949;-69
2021/05/18 01:27:12;;;;;;;;;4.75;3.00;;;;;;;;3534313;39;113260;-69
2021/05/18 01:29:38;;;;;;;;;3.00;1.75;;;;;;;;3533511;39;113964;-67
2021/05/18 01:32:08;;;;;;;;;4.50;2.75;;;;;;;;3536910;39;112126;-67
2021/05/18 01:34:35;;;;;;;;;3.75;3.00;;;;;;;;3533392;39;113803;-67
2021/05/18 01:37:01;;;;;;;;;4.00;3.00;;;;;;;;3532070;39;112305;-67
2021/05/18 01:39:55;;;;;;;;;2.75;2.75;;;;;;;;3533809;39;114220;-66
2021/05/18 01:45:09;;;;;;;;;2.00;2.00;;;;;;;;3534102;39;112455;-67
2021/05/18 01:47:36;;;;;;;;;1.00;1.00;;;;;;;;3530527;39;113549;-67
2021/05/18 01:50:02;;;;;;;;;2.75;2.75;;;;;;;;3532619;39;113854;-67
2021/05/18 01:52:28;;;;;;;;;2.00;2.00;;;;;;;;3533923;39;112108;-68
2021/05/18 01:54:55;;;;;;;;;3.00;3.00;;;;;;;;3536300;39;113450;-67
2021/05/18 01:57:22;;;;;;;;;4.25;3.00;;;;;;;;3533894;39;112418;-67
2021/05/18 01:59:49;;;;;;;;;1.25;1.25;;;;;;;;3534151;39;113184;-67
2021/05/18 02:02:15;;;;;;;;;3.50;1.75;;;;;;;;3531829;39;113022;-68
2021/05/18 02:04:43;;;;;;;;;6.25;5.75;;;;;;;;3529199;39;111932;-68
2021/05/18 02:07:10;;;;;;;;;4.00;3.00;;;;;;;;3534112;39;113425;-69
2021/05/18 02:09:37;;;;;;;;;5.00;3.00;;;;;;;;3533456;39;113800;-67
2021/05/18 02:12:04;;;;;;;;;5.00;3.00;;;;;;;;3533829;39;111850;-67
2021/05/18 02:14:32;;;;;;;;;3.50;2.25;;;;;;;;3532089;39;114071;-67
2021/05/18 02:17:03;;;;;;;;;10.50;2.50;;;;;;;;3535965;39;114412;-67
2021/05/18 02:19:46;;;;;;;;;6.25;2.75;;;;;;;;3533686;39;113190;-67
2021/05/18 02:22:24;;;;;;;;;2.00;2.00;;;;;;;;3529539;39;113825;-67
2021/05/18 02:25:01;;;;;;;;;4.25;3.00;;;;;;;;3530959;39;112467;-67
2021/05/18 02:27:29;;;;;;;;;5.50;3.00;;;;;;;;3533687;39;113380;-70
2021/05/18 02:29:55;;;;;;;;;5.25;3.00;;;;;;;;3530500;39;114129;-70
2021/05/18 02:32:21;;;;;;;;;4.50;1.50;;;;;;;;3532251;39;111890;-71
2021/05/18 02:34:47;;;;;;;;;4.00;2.00;;;;;;;;3533730;39;113086;-71
2021/05/18 02:37:13;;;;;;;;;3.50;2.00;;;;;;;;3533317;39;114129;-68
2021/05/18 02:39:39;;;;;;;;;7.00;3.00;;;;;;;;3535131;39;112051;-69
2021/05/18 02:42:06;;;;;;;;;4.50;2.00;;;;;;;;3525579;39;114194;-69
2021/05/18 02:44:35;;;;;;;;;5.75;3.25;;;;;;;;3526573;39;111797;-69
2021/05/18 02:49:45;;;;;;;;;3.75;2.50;;;;;;;;3525692;39;112337;-70
2021/05/18 02:52:11;;;;;;;;;4.25;2.25;;;;;;;;3528955;39;113258;-69
2021/05/18 02:54:37;;;;;;;;;3.50;3.00;;;;;;;;3533423;39;113205;-69
2021/05/18 02:57:05;;;;;;;;;7.00;4.00;;;;;;;;3533055;39;113879;-70
2021/05/18 02:59:32;;;;;;;;;3.25;2.50;;;;;;;;3533254;39;112046;-68
2021/05/18 03:01:59;;;;;;;;;4.50;2.00;;;;;;;;3535891;39;113529;-69
2021/05/18 03:04:26;;;;;;;;;7.25;2.75;;;;;;;;3534641;39;112145;-68
2021/05/18 03:06:52;;;;;;;;;8.50;3.00;;;;;;;;3528987;39;112459;-68
2021/05/18 03:09:19;;;;;;;;;2.00;2.00;;;;;;;;3534227;39;113890;-68
2021/05/18 03:11:46;;;;;;;;;4.00;3.00;;;;;;;;3534640;39;111825;-68
2021/05/18 03:14:13;;;;;;;;;1.50;1.50;;;;;;;;3530995;39;113478;-68
2021/05/18 03:16:40;;;;;;;;;7.00;3.50;;;;;;;;3534097;39;113934;-69
2021/05/18 03:19:07;;;;;;;;;4.25;2.75;;;;;;;;3534650;39;111986;-68
2021/05/18 03:21:33;;;;;;;;;3.25;2.00;;;;;;;;3536763;39;113160;-69
2021/05/18 03:23:59;;;;;;;;;2.00;2.00;;;;;;;;3534600;39;111878;-68
2021/05/18 03:26:27;;;;;;;;;6.50;4.00;;;;;;;;3532378;39;113510;-69
2021/05/18 03:28:57;;;;;;;;;3.50;2.50;;;;;;;;3534127;39;113787;-69
2021/05/18 03:34:29;;;;;;;;;2.00;2.00;;;;;;;;3534661;39;112220;-69
2021/05/18 03:36:56;;;;;;;;;2.00;2.00;;;;;;;;3530074;39;114626;-68
2021/05/18 03:39:22;;;;;;;;;6.50;2.25;;;;;;;;3534177;39;112348;-68
2021/05/18 03:41:55;;;;;;;;;4.00;2.00;;;;;;;;3534710;39;113595;-69
2021/05/18 03:44:27;;;;;;;;;5.75;2.75;;;;;;;;3536544;39;113958;-68
2021/05/18 03:52:25;;;;;;;;;3.75;2.25;;;;;;;;3531698;39;111999;-67
2021/05/18 03:54:59;;;;;;;;;2.50;1.50;;;;;;;;3534683;39;113502;-68
2021/05/18 04:03:01;;;;;;;;;3.50;3.50;;;;;;;;3531449;39;111739;-69
2021/05/18 04:11:28;;;;;;;;;3.00;3.00;;;;;;;;3532249;39;112372;-67
2021/05/18 04:16:57;;;;;;;;;8.75;3.00;;;;;;;;3534419;39;112071;-68
2021/05/18 04:19:27;;;;;;;;;8.00;4.00;;;;;;;;3531488;39;114733;-68
2021/05/18 04:41:18;;;;;;;;;7.00;4.00;;;;;;;;3532433;39;112325;-69
2021/05/18 04:51:55;;;;;;;;;7.00;6.00;;;;;;;;3519367;39;112035;-69
2021/05/18 04:59:55;;;;;;;;;6.00;6.00;;;;;;;;3531905;39;112519;-68
2021/05/18 05:07:52;;;;;;;;;4.50;3.25;;;;;;;;3530987;39;111955;-68
2021/05/18 05:10:25;;;;;;;;;8.25;4.00;;;;;;;;3533733;39;113823;-68
2021/05/18 05:14:07;;;;;;;;;4.00;4.00;;;;;;;;3534120;39;113270;-68
2021/05/18 05:15:48;;;;;;;;;5.00;4.25;;;;;;;;3530974;39;114101;-70
2021/05/18 05:18:14;;;;;;;;;5.75;5.75;;;;;;;;3533923;39;113947;-67
2021/05/18 05:20:40;;;;;;;;;8.50;5.50;;;;;;;;3532067;39;113018;-69
2021/05/18 05:23:06;;;;;;;;;3.00;3.00;;;;;;;;3533781;39;113895;-75
2021/05/18 05:25:33;;;;;;;;;8.25;6.50;;;;;;;;3533486;39;111788;-69
2021/05/18 05:27:59;;;;;;;;;6.25;5.00;;;;;;;;3533980;39;113610;-70
2021/05/18 05:30:25;;;;;;;;;6.50;3.00;;;;;;;;3528988;39;114065;-68
2021/05/18 05:32:51;;;;;;;;;8.00;4.00;;;;;;;;3534019;39;112001;-68
2021/05/18 05:35:18;;;;;;;;;8.00;7.00;;;;;;;;3533965;39;113265;-69
2021/05/18 05:37:44;;;;;;;;;4.25;4.25;;;;;;;;3533449;39;113047;-68
2021/05/18 05:40:10;;;;;;;;;4.75;4.00;;;;;;;;3535973;39;112006;-68
2021/05/18 05:42:37;;;;;;;;;11.25;8.50;;;;;;;;3527932;39;113896;-68
2021/05/18 05:45:04;;;;;;;;;8.00;2.00;;;;;;;;3534178;39;111801;-72
2021/05/18 05:47:30;;;;;;;;;3.75;3.75;;;;;;;;3533849;39;113971;-71
2021/05/18 05:49:56;;;;;;;;;5.50;3.75;;;;;;;;3528155;39;113985;-69
2021/05/18 05:52:23;;;;;;;;;8.50;5.25;;;;;;;;3533626;39;111903;-71
2021/05/18 05:54:50;;;;;;;;;7.25;4.75;;;;;;;;3533897;39;113400;-71
2021/05/18 05:57:17;;;;;;;;;5.50;5.00;;;;;;;;3533452;39;113820;-73
2021/05/18 05:59:44;;;;;;;;;4.25;3.50;;;;;;;;3529923;39;112559;-64
2021/05/18 06:02:10;;;;;;;;;3.50;3.50;;;;;;;;3535716;39;113191;-65
2021/05/18 06:04:36;;;;;;;;;7.50;4.75;;;;;;;;3533292;39;111813;-66
2021/05/18 06:07:02;;;;;;;;;2.00;1.00;;;;;;;;3533547;39;113518;-72
2021/05/18 06:09:28;;;;;;;;;6.00;4.25;;;;;;;;3532957;39;113954;-76
2021/05/18 06:11:59;;;;;;;;;1.75;1.00;;;;;;;;3533374;39;111993;-75
2021/05/18 06:14:37;;;;;;;;;4.00;2.00;;;;;;;;3530555;39;113342;-74
2021/05/18 06:42:14;;;;;;;;;7.50;4.75;;;;;;;;3495214;40;111917;-67
2021/05/18 06:47:31;;;;;;;;;5.00;3.00;;;;;;;;3530496;39;112347;-68
2021/05/18 06:50:09;;;;;;;;;11.50;7.50;;;;;;;;3536089;39;112206;-67
2021/05/18 06:52:35;;;;;;;;;3.50;3.25;;;;;;;;3532910;39;114631;-71
2021/05/18 06:55:03;;;;;;;;;7.50;4.00;;;;;;;;3533483;39;111930;-72
2021/05/18 06:57:30;;;;;;;;;5.00;5.00;;;;;;;;3533490;39;113710;-71
2021/05/18 07:00:08;;;;;;;;;9.25;4.75;;;;;;;;3532813;39;113656;-71
2021/05/18 07:02:35;;;;;;;;;8.25;5.00;;;;;;;;3533415;39;112287;-73
2021/05/18 07:05:01;;;;;;;;;4.00;3.50;;;;;;;;3533645;39;113970;-72
2021/05/18 07:07:29;;;;;;;;;5.75;5.00;;;;;;;;3530748;39;114547;-71
2021/05/18 07:09:55;;;;;;;;;5.00;4.00;;;;;;;;3533504;39;112116;-72
2021/05/18 07:12:21;;;;;;;;;10.00;5.00;;;;;;;;3535214;39;113870;-71
2021/05/18 07:14:48;;;;;;;;;6.75;4.50;;;;;;;;3529206;39;112510;-72
2021/05/18 07:17:14;;;;;;;;;5.25;3.00;;;;;;;;3529720;39;113302;-69
2021/05/18 07:19:41;;;;;;;;;2.50;2.50;;;;;;;;3532718;39;114196;-71
2021/05/18 07:22:08;;;;;;;;;4.00;3.00;;;;;;;;3533265;39;111928;-71
2021/05/18 07:24:34;;;;;;;;;5.25;3.50;;;;;;;;3533104;39;112688;-71
2021/05/18 07:27:02;;;;;;;;;1.00;1.00;;;;;;;;3532772;39;114686;-72
2021/05/18 07:29:28;;;;;;;;;4.50;3.25;;;;;;;;3533045;39;111789;-71
2021/05/18 07:31:54;;;;;;;;;4.25;2.00;;;;;;;;3533117;39;113297;-70
2021/05/18 07:34:20;;;;;;;;;3.25;2.00;;;;;;;;3534982;39;112394;-72
2021/05/18 07:36:47;;;;;;;;;5.00;2.00;;;;;;;;3533231;39;113224;-72
2021/05/18 07:39:14;;;;;;;;;4.75;3.00;;;;;;;;3528520;39;113797;-69
2021/05/18 07:41:40;;;;;;;;;5.75;4.00;;;;;;;;3532791;39;112181;-71
2021/05/18 07:44:06;;;;;;;;;4.50;3.00;;;;;;;;3533157;39;113511;-70
2021/05/18 07:46:32;;;;;;;;;3.50;3.00;;;;;;;;3529138;39;113412;-70
2021/05/18 07:49:11;;;;;;;;;2.25;2.00;;;;;;;;3533151;39;111776;-70
2021/05/18 07:51:54;;;;;;;;;3.50;2.00;;;;;;;;3532732;39;113307;-70
2021/05/18 07:59:52;;;;;;;;;5.25;5.00;;;;;;;;3521422;39;112366;-69
2021/05/18 08:02:23;;;;;;;;;5.50;4.00;;;;;;;;3529898;39;112444;-71
2021/05/18 08:07:35;;;;;;;;;4.00;1.75;;;;;;;;3526204;39;112521;-71
2021/05/18 08:10:09;;;;;;;;;1.25;1.25;;;;;;;;3534228;39;111998;-71
2021/05/18 08:12:35;;;;;;;;;3.00;2.00;;;;;;;;3526309;39;113824;-70
2021/05/18 08:15:13;;;;;;;;;5.25;3.25;;;;;;;;3522751;39;113159;-70
2021/05/18 08:17:42;;;;;;;;;1.75;1.75;;;;;;;;3528402;39;112678;-71
2021/05/18 10:36:27;;;;;;;;;1.00;1.00;;;;;;;;3526992;39;114081;-75
2021/05/18 10:39:13;;;;;;;;;3.75;2.00;;;;;;;;3525266;39;111903;-75
2021/05/18 10:41:39;;;;;;;;;1.00;1.00;;;;;;;;3522481;39;114155;-75
2021/05/18 10:44:06;;;;;;;;;1.00;1.00;;;;;;;;3529601;39;114195;-75
2021/05/18 10:46:46;;;;;;;;;1.00;0.25;;;;;;;;3526892;39;113223;-75
2021/05/18 10:49:13;;;;;;;;;1.75;1.25;;;;;;;;3523806;39;113605;-76
2021/05/18 10:51:56;;;;;;;;;4.00;1.00;;;;;;;;3529183;39;113285;-75
2021/05/18 10:54:40;;;;;;;;;2.00;2.00;;;;;;;;3530562;39;113222;-76
2021/05/18 10:57:07;;;;;;;;;5.00;4.00;;;;;;;;3529313;39;113750;-76
2021/05/18 10:59:37;;;;;;;;;1.50;1.00;;;;;;;;3530423;39;112544;-75
2021/05/18 11:02:03;;;;;;;;;4.00;2.75;;;;;;;;3533337;39;113914;-75
2021/05/18 11:04:31;;;;;;;;;1.00;1.00;;;;;;;;3532815;39;113844;-74
2021/05/18 11:06:58;;;;;;;;;4.50;3.25;;;;;;;;3536180;39;111947;-75
2021/05/18 11:09:25;;;;;;;;;10.50;10.50;;;;;;;;3528937;39;113990;-74
2021/05/18 11:11:57;;;;;;;;;3.00;3.00;;;;;;;;3524681;39;112778;-75
2021/05/18 11:14:32;;;;;;;;;3.75;2.50;;;;;;;;3527303;39;113385;-75
2021/05/18 11:17:06;;;;;;;;;3.75;3.00;;;;;;;;3526079;39;113980;-75
2021/05/18 11:19:33;;;;;;;;;4.00;1.50;;;;;;;;3526119;39;111943;-75
2021/05/18 11:22:02;;;;;;;;;3.75;2.00;;;;;;;;3524936;39;112354;-75
2021/05/18 11:24:28;;;;;;;;;1.25;1.25;;;;;;;;3527768;39;113833;-75
2021/05/18 11:26:54;;;;;;;;;2.25;2.25;;;;;;;;3528749;39;112115;-76
2021/05/18 11:29:34;;;;;;;;;3.25;2.75;;;;;;;;3530980;39;112504;-76
2021/05/18 11:32:08;;;;;;;;;2.00;2.00;;;;;;;;3534056;39;111866;-78
2021/05/18 11:34:34;;;;;;;;;1.25;1.25;;;;;;;;3534403;39;113533;-77
2021/05/18 11:37:00;;;;;;;;;2.75;2.75;;;;;;;;3533730;39;113912;-79
2021/05/18 11:39:28;;;;;;;;;1.75;1.75;;;;;;;;3534292;39;111933;-76
2021/05/18 11:41:54;;;;;;;;;2.00;1.00;;;;;;;;3534296;39;113400;-79
2021/05/18 11:44:20;;;;;;;;;2.50;1.25;;;;;;;;3533841;39;113813;-75
2021/05/18 11:46:47;;;;;;;;;3.25;1.50;;;;;;;;3533993;39;111804;-76
2021/05/18 11:49:14;;;;;;;;;3.25;1.00;;;;;;;;3530295;39;113466;-74
2021/05/18 11:51:43;;;;;;;;;1.75;1.75;;;;;;;;3536229;39;113925;-75
2021/05/18 11:54:09;;;;;;;;;2.50;2.00;;;;;;;;3534070;39;113219;-76
2021/05/18 11:56:39;;;;;;;;;1.00;1.00;;;;;;;;3534140;39;113878;-76
2021/05/18 11:59:06;;;;;;;;;1.00;1.00;;;;;;;;3534290;39;111981;-75
2021/05/18 12:01:33;;;;;;;;;1.50;1.50;;;;;;;;3534566;39;113319;-72
2021/05/18 12:04:00;;;;;;;;;1.00;1.00;;;;;;;;3533850;39;113921;-73
2021/05/18 12:06:27;;;;;;;;;2.75;1.50;;;;;;;;3530390;39;112928;-75
2021/05/18 12:08:56;;;;;;;;;2.00;2.00;;;;;;;;3527387;39;114114;-74
2021/05/18 12:11:22;;;;;;;;;4.25;1.00;;;;;;;;3526301;39;113741;-76
2021/05/18 12:13:49;;;;;;;;;2.25;2.25;;;;;;;;3524776;39;112766;-75
2021/05/18 12:16:16;;;;;;;;;2.00;2.00;;;;;;;;3523227;39;113804;-74
